This is the latest recevied weather packets stored in our database for station/object AI5YA-13. If no packets are shown the sender has not sent any weather packets the latest 1 day(s).
| Time | Temp. | Humidity | Pressure | Rain* | Wind** | Luminosity | Snow |
|---|---|---|---|---|---|---|---|
| 1778085224 | 15° C | 62% | 1015.9 hPa | 0 mm | - | 778 W/m² | - |
| 1778084315 | 14.44° C | 63% | 1015.9 hPa | 0 mm | - | 853 W/m² | - |
| 1778084012 | 13.33° C | 65% | 1016.2 hPa | 0 mm | - | 469 W/m² | - |
| 1778083710 | 13.33° C | 64% | 1016 hPa | 0 mm | - | 769 W/m² | - |
| 1778083406 | 13.89° C | 64% | 1016.2 hPa | 0 mm | - | 322 W/m² | - |
| 1778083105 | 13.33° C | 65% | 1015.6 hPa | 0 mm | - | 797 W/m² | - |
| 1778080463 | 11.67° C | 69% | 1016 hPa | 0 mm | - | 264 W/m² | - |
| 1778080161 | 12.22° C | 69% | 1016.2 hPa | 0 mm | - | 326 W/m² | - |
| 1778078039 | 11.67° C | 70% | 1015.7 hPa | 0 mm | - | 308 W/m² | - |
| 1778077435 | 11.11° C | 71% | 1015.7 hPa | 0 mm | - | 213 W/m² | - |
| 1778077133 | 11.11° C | 71% | 1015.9 hPa | 0 mm | - | 193 W/m² | - |
| 1778076225 | 11.67° C | 72% | 1015.5 hPa | 0 mm | - | 186 W/m² | - |
| 1778074709 | 11.67° C | 73% | 1014.4 hPa | 0 mm | - | 114 W/m² | - |
| 1778073193 | 12.22° C | 74% | 1014 hPa | 0 mm | - | 93 W/m² | - |
| 1778072587 | 12.22° C | 74% | 1014.1 hPa | 0 mm | - | 74 W/m² | - |
| 1778072285 | 12.22° C | 74% | 1014.1 hPa | 0 mm | - | 67 W/m² | - |
| 1778071983 | 12.22° C | 75% | 1013.7 hPa | 0 mm | - | 58 W/m² | - |
| 1778071378 | 12.78° C | 74% | 1013.1 hPa | 0 mm | - | 39 W/m² | - |
| 1778068655 | 14.44° C | 70% | 1012.8 hPa | 0 mm | - | 0 W/m² | - |
| 1778068353 | 14.44° C | 70% | 1012.6 hPa | 0 mm | - | 0 W/m² | - |
| 1778065933 | 15° C | 67% | 1012.2 hPa | 0 mm | - | 0 W/m² | - |
| 1778065629 | 15.56° C | 67% | 1012.2 hPa | 0 mm | - | 0 W/m² | - |
| 1778065327 | 15.56° C | 66% | 1012.2 hPa | 0 mm | - | 0 W/m² | - |
| 1778061997 | 19.44° C | 43% | 1011.8 hPa | 0 mm | - | 0 W/m² | - |
| 1778061393 | 18.89° C | 50% | 1011.4 hPa | 0 mm | - | 0 W/m² | - |
* Rain latest hour (hover to see other rain measurements)
** Current wind speed in m/s (hover to see current wind gust speed)